Time;durP1;ratioP1;P1;durP2;ratioP2;P2;SDS_P1;SDS_P2;PMS_P1;PMS_P2;Temp;Humidity;BMP_temperature;BMP_pressure;BME280_temperature;BME280_humidity;BME280_pressure;Samples;Min_cycle;Max_cycle;Signal;HPM_P1;HPM_P2
2023/04/14 00:00:26;;;;;;;11.70;7.47;;;;;;;;;;5042133;28;20044;-67
2023/04/14 00:02:52;;;;;;;10.63;7.85;;;;;;;;;;5041631;28;20035;-67
2023/04/14 00:05:17;;;;;;;12.00;7.18;;;;;;;;;;5045359;28;20074;-68
2023/04/14 00:07:43;;;;;;;9.20;7.63;;;;;;;;;;5037611;28;20033;-68
2023/04/14 00:10:09;;;;;;;7.95;7.20;;;;;;;;;;5025568;28;20120;-67
2023/04/14 00:12:35;;;;;;;9.40;6.78;;;;;;;;;;5039031;28;20051;-68
2023/04/14 00:15:00;;;;;;;10.25;7.45;;;;;;;;;;5041242;28;20061;-67
2023/04/14 00:17:26;;;;;;;8.50;7.10;;;;;;;;;;5041007;28;20116;-67
2023/04/14 00:19:52;;;;;;;10.35;7.05;;;;;;;;;;5043403;28;20040;-67
2023/04/14 00:22:17;;;;;;;12.38;6.40;;;;;;;;;;5041707;28;20036;-67
2023/04/14 00:24:43;;;;;;;5.90;5.40;;;;;;;;;;5037222;28;20061;-67
2023/04/14 00:27:09;;;;;;;15.18;6.45;;;;;;;;;;5038306;28;20484;-67
2023/04/14 00:29:37;;;;;;;9.23;7.30;;;;;;;;;;5022664;28;20037;-67
2023/04/14 00:32:06;;;;;;;13.25;6.68;;;;;;;;;;5020593;28;20085;-67
2023/04/14 00:34:32;;;;;;;9.38;6.85;;;;;;;;;;5040304;28;20052;-67
2023/04/14 00:36:57;;;;;;;7.82;6.55;;;;;;;;;;5027357;28;20044;-67
2023/04/14 00:39:23;;;;;;;7.07;6.10;;;;;;;;;;5041829;28;20034;-67
2023/04/14 00:41:48;;;;;;;10.38;7.15;;;;;;;;;;5038886;28;20031;-67
2023/04/14 00:44:14;;;;;;;8.07;7.20;;;;;;;;;;5040854;28;20505;-67
2023/04/14 00:46:41;;;;;;;9.80;6.88;;;;;;;;;;5023638;28;20041;-67
2023/04/14 00:49:07;;;;;;;7.95;7.15;;;;;;;;;;5037989;28;20042;-67
2023/04/14 00:51:33;;;;;;;13.10;7.78;;;;;;;;;;5021826;28;20047;-67
2023/04/14 00:54:04;;;;;;;11.00;7.50;;;;;;;;;;5040798;28;20029;-67
2023/04/14 00:56:30;;;;;;;8.40;6.32;;;;;;;;;;5026149;28;20037;-66
2023/04/14 00:59:00;;;;;;;8.73;7.43;;;;;;;;;;5042753;28;20129;-67
2023/04/14 01:01:27;;;;;;;13.27;8.40;;;;;;;;;;5024951;28;20083;-67
2023/04/14 01:03:53;;;;;;;8.45;7.53;;;;;;;;;;5024227;28;20040;-66
2023/04/14 01:06:19;;;;;;;8.80;7.93;;;;;;;;;;5026139;28;20044;-67
2023/04/14 01:08:44;;;;;;;15.82;8.77;;;;;;;;;;5047263;28;20037;-67
2023/04/14 01:11:23;;;;;;;10.07;8.02;;;;;;;;;;5024446;28;20431;-67
2023/04/14 01:13:54;;;;;;;9.60;8.25;;;;;;;;;;5026635;28;20045;-67
2023/04/14 01:16:32;;;;;;;;;;;;;;;;;;5024593;28;20041;-67
2023/04/14 01:19:32;;;;;;;11.70;7.93;;;;;;;;;;5026380;28;19916;-67
2023/04/14 01:22:04;;;;;;;11.88;7.57;;;;;;;;;;5044220;28;20041;-67
2023/04/14 01:24:42;;;;;;;12.48;9.13;;;;;;;;;;5043402;28;20040;-67
2023/04/14 01:27:23;;;;;;;13.75;9.13;;;;;;;;;;5041308;28;20041;-67
2023/04/14 01:30:07;;;;;;;10.85;9.23;;;;;;;;;;5037029;28;20030;-67
2023/04/14 01:32:38;;;;;;;12.52;8.88;;;;;;;;;;5026002;28;20048;-67
2023/04/14 01:35:19;;;;;;;13.25;8.75;;;;;;;;;;5044061;28;20587;-67
2023/04/14 01:37:49;;;;;;;12.18;8.27;;;;;;;;;;5046035;28;20108;-67
2023/04/14 01:40:17;;;;;;;11.75;9.48;;;;;;;;;;5047550;28;20511;-66
2023/04/14 01:42:50;;;;;;;13.10;9.38;;;;;;;;;;5025583;28;20036;-67
2023/04/14 01:45:23;;;;;;;11.90;8.40;;;;;;;;;;5043852;28;20087;-67
2023/04/14 01:47:50;;;;;;;9.70;8.75;;;;;;;;;;5028095;28;20172;-67
2023/04/14 01:50:19;;;;;;;11.95;9.18;;;;;;;;;;5027873;28;20045;-67
2023/04/14 01:52:51;;;;;;;13.60;8.55;;;;;;;;;;5042357;28;20025;-67
2023/04/14 01:55:19;;;;;;;11.82;9.13;;;;;;;;;;5025605;28;20041;-65
2023/04/14 01:57:48;;;;;;;11.75;8.73;;;;;;;;;;5023313;28;20029;-66
2023/04/14 02:00:17;;;;;;;16.90;8.65;;;;;;;;;;5021747;28;20049;-69
2023/04/14 02:02:45;;;;;;;10.60;8.27;;;;;;;;;;5040432;28;20043;-67
2023/04/14 02:05:12;;;;;;;13.65;9.13;;;;;;;;;;5044591;28;20036;-68
2023/04/14 02:07:39;;;;;;;10.75;7.95;;;;;;;;;;5037243;28;20056;-68
2023/04/14 02:10:08;;;;;;;10.48;8.73;;;;;;;;;;5041478;28;20096;-67
2023/04/14 02:12:35;;;;;;;13.45;8.88;;;;;;;;;;5027562;28;20086;-68
2023/04/14 02:15:01;;;;;;;13.38;8.00;;;;;;;;;;5023000;28;20033;-67
2023/04/14 02:17:29;;;;;;;10.32;8.80;;;;;;;;;;5022973;28;20444;-67
2023/04/14 02:19:55;;;;;;;12.95;8.82;;;;;;;;;;5029800;28;20041;-67
2023/04/14 02:22:20;;;;;;;10.45;9.35;;;;;;;;;;5024800;28;20025;-67
2023/04/14 02:24:46;;;;;;;10.77;8.27;;;;;;;;;;5026579;28;20282;-67
2023/04/14 02:27:20;;;;;;;10.43;7.93;;;;;;;;;;5026624;28;20162;-66
2023/04/14 02:29:51;;;;;;;9.95;8.30;;;;;;;;;;5043627;28;20392;-68
2023/04/14 02:32:22;;;;;;;13.18;7.55;;;;;;;;;;5028693;28;20044;-67
2023/04/14 02:35:02;;;;;;;10.75;8.43;;;;;;;;;;5019250;28;20033;-67
2023/04/14 02:37:34;;;;;;;9.63;8.55;;;;;;;;;;5027678;28;20134;-67
2023/04/14 02:40:06;;;;;;;10.95;8.50;;;;;;;;;;5046074;28;20452;-67
2023/04/14 02:42:36;;;;;;;15.52;9.05;;;;;;;;;;5022409;28;20056;-68
2023/04/14 02:45:05;;;;;;;16.13;9.25;;;;;;;;;;5033256;28;20036;-67
2023/04/14 02:47:45;;;;;;;10.80;8.68;;;;;;;;;;5040823;28;20033;-67
2023/04/14 02:50:14;;;;;;;10.20;8.65;;;;;;;;;;5023914;28;20115;-67
2023/04/14 02:52:50;;;;;;;14.32;8.38;;;;;;;;;;5041312;28;20033;-67
2023/04/14 02:55:18;;;;;;;12.80;8.50;;;;;;;;;;5024428;28;20123;-68
2023/04/14 02:57:47;;;;;;;9.60;8.27;;;;;;;;;;5022146;28;20477;-67
2023/04/14 03:00:14;;;;;;;12.82;8.93;;;;;;;;;;5020735;28;20036;-67
2023/04/14 03:02:45;;;;;;;10.65;8.68;;;;;;;;;;5039432;28;20049;-68
2023/04/14 03:05:11;;;;;;;10.52;8.65;;;;;;;;;;5025468;28;20071;-68
2023/04/14 03:07:50;;;;;;;14.20;8.93;;;;;;;;;;5018518;28;20116;-67
2023/04/14 03:10:18;;;;;;;11.70;8.48;;;;;;;;;;5026902;28;20059;-66
2023/04/14 03:12:46;;;;;;;10.57;8.43;;;;;;;;;;5023959;28;20564;-67
2023/04/14 03:15:15;;;;;;;12.30;9.20;;;;;;;;;;5021256;28;21965;-67
2023/04/14 03:17:42;;;;;;;14.38;9.77;;;;;;;;;;5021533;28;20688;-68
2023/04/14 03:20:09;;;;;;;20.90;11.85;;;;;;;;;;5045088;28;20072;-68
2023/04/14 03:22:39;;;;;;;14.05;9.60;;;;;;;;;;5040972;28;20037;-67
2023/04/14 03:25:06;;;;;;;15.90;10.48;;;;;;;;;;5020729;28;20072;-67
2023/04/14 03:27:33;;;;;;;16.75;9.52;;;;;;;;;;5027306;28;20503;-68
2023/04/14 03:30:03;;;;;;;15.93;8.75;;;;;;;;;;5023610;28;20060;-67
2023/04/14 03:32:34;;;;;;;11.00;9.13;;;;;;;;;;5043385;28;20113;-67
2023/04/14 03:35:01;;;;;;;14.25;10.00;;;;;;;;;;5024797;28;20171;-67
2023/04/14 03:37:30;;;;;;;14.07;9.65;;;;;;;;;;5034703;28;20052;-67
2023/04/14 03:39:59;;;;;;;11.68;10.10;;;;;;;;;;5022148;28;20644;-67
2023/04/14 03:42:28;;;;;;;14.20;10.23;;;;;;;;;;5023513;28;20490;-67
2023/04/14 03:44:57;;;;;;;11.45;9.93;;;;;;;;;;5024984;28;20041;-67
2023/04/14 03:47:25;;;;;;;15.40;10.00;;;;;;;;;;5024114;28;20629;-67
2023/04/14 03:49:55;;;;;;;13.18;9.07;;;;;;;;;;5025023;28;20394;-67
2023/04/14 03:52:22;;;;;;;13.88;10.27;;;;;;;;;;5022490;28;20045;-67
2023/04/14 03:54:50;;;;;;;14.52;9.48;;;;;;;;;;5019970;28;20039;-67
2023/04/14 03:57:19;;;;;;;12.75;9.50;;;;;;;;;;5022189;28;20048;-67
2023/04/14 03:59:49;;;;;;;15.30;10.00;;;;;;;;;;5026106;28;20037;-68
2023/04/14 04:02:16;;;;;;;12.18;9.85;;;;;;;;;;5023446;28;20044;-67
2023/04/14 04:04:43;;;;;;;12.48;10.80;;;;;;;;;;5025543;28;20048;-67
2023/04/14 04:07:12;;;;;;;12.82;10.38;;;;;;;;;;5020245;28;20133;-67
2023/04/14 04:09:38;;;;;;;13.05;9.85;;;;;;;;;;5038892;28;20112;-67
2023/04/14 04:12:06;;;;;;;14.88;9.25;;;;;;;;;;5029366;28;20033;-67
2023/04/14 04:14:34;;;;;;;14.25;10.20;;;;;;;;;;5042956;28;20055;-67
2023/04/14 04:17:05;;;;;;;17.40;9.93;;;;;;;;;;5024643;28;20033;-68
2023/04/14 04:19:33;;;;;;;14.40;9.98;;;;;;;;;;5028357;28;20510;-67
2023/04/14 04:22:00;;;;;;;14.88;9.90;;;;;;;;;;5022134;28;20043;-68
2023/04/14 04:24:30;;;;;;;12.50;10.18;;;;;;;;;;5027247;28;20041;-66
2023/04/14 04:26:57;;;;;;;15.82;9.77;;;;;;;;;;5035856;28;20029;-66
2023/04/14 04:29:23;;;;;;;13.30;9.63;;;;;;;;;;5028973;28;20056;-66
2023/04/14 04:31:50;;;;;;;16.23;9.95;;;;;;;;;;5037040;28;21498;-66
2023/04/14 04:34:17;;;;;;;15.23;9.60;;;;;;;;;;5029358;28;20511;-66
2023/04/14 04:36:43;;;;;;;14.77;9.77;;;;;;;;;;5033083;28;20033;-66
2023/04/14 04:39:09;;;;;;;24.80;10.82;;;;;;;;;;5054743;28;20060;-66
2023/04/14 04:41:39;;;;;;;29.50;22.20;;;;;;;;;;5052774;28;20041;-66
2023/04/14 04:44:05;;;;;;;20.42;14.45;;;;;;;;;;5053939;28;20094;-66
2023/04/14 04:46:53;;;;;;;20.27;12.93;;;;;;;;;;5023735;28;20044;-66
2023/04/14 04:49:22;;;;;;;18.65;10.57;;;;;;;;;;5031832;28;20043;-66
2023/04/14 04:51:48;;;;;;;22.45;11.00;;;;;;;;;;5056696;28;20045;-66
2023/04/14 04:54:16;;;;;;;17.88;12.48;;;;;;;;;;5030238;28;20481;-66
2023/04/14 04:56:42;;;;;;;18.33;11.45;;;;;;;;;;5045231;28;20041;-66
2023/04/14 04:59:08;;;;;;;17.38;11.20;;;;;;;;;;5051702;28;20032;-66
2023/04/14 05:01:34;;;;;;;16.88;10.25;;;;;;;;;;5058228;28;20036;-66
2023/04/14 05:04:00;;;;;;;15.95;12.15;;;;;;;;;;5047685;28;20097;-66
2023/04/14 05:06:27;;;;;;;20.17;12.00;;;;;;;;;;5049414;28;20036;-67
2023/04/14 05:08:53;;;;;;;14.63;12.40;;;;;;;;;;5033421;28;20033;-67
2023/04/14 05:11:19;;;;;;;15.27;11.02;;;;;;;;;;5048855;28;20427;-67
2023/04/14 05:13:44;;;;;;;15.63;10.10;;;;;;;;;;5047465;28;20037;-67
2023/04/14 05:16:14;;;;;;;14.77;11.95;;;;;;;;;;5050877;28;20123;-66
2023/04/14 05:18:41;;;;;;;20.10;10.20;;;;;;;;;;5052672;28;20413;-66
2023/04/14 05:21:08;;;;;;;14.43;11.45;;;;;;;;;;5048108;28;20040;-66
2023/04/14 05:23:35;;;;;;;13.82;9.25;;;;;;;;;;5050149;28;20041;-66
2023/04/14 05:26:02;;;;;;;13.52;9.63;;;;;;;;;;5046369;28;20032;-66
2023/04/14 05:28:28;;;;;;;7.93;6.47;;;;;;;;;;5045774;28;20037;-67
2023/04/14 05:30:54;;;;;;;15.18;11.48;;;;;;;;;;5047907;28;20035;-67
2023/04/14 05:33:19;;;;;;;10.60;9.32;;;;;;;;;;5048621;28;20041;-67
2023/04/14 05:35:45;;;;;;;11.38;9.38;;;;;;;;;;5051357;28;20029;-67
2023/04/14 05:38:12;;;;;;;14.00;12.27;;;;;;;;;;5043266;28;20057;-66
2023/04/14 05:40:38;;;;;;;17.33;10.27;;;;;;;;;;5049424;28;20043;-66
2023/04/14 05:43:04;;;;;;;9.07;8.25;;;;;;;;;;5048867;28;20378;-66
2023/04/14 05:45:30;;;;;;;12.13;10.00;;;;;;;;;;5051756;28;20040;-66
2023/04/14 05:47:56;;;;;;;11.20;10.10;;;;;;;;;;5045632;28;20111;-66
2023/04/14 05:50:21;;;;;;;8.95;8.05;;;;;;;;;;5048047;28;20036;-66
2023/04/14 05:52:50;;;;;;;12.40;10.05;;;;;;;;;;5049757;28;20047;-66
2023/04/14 05:55:17;;;;;;;21.98;12.80;;;;;;;;;;5046700;28;20515;-66
2023/04/14 05:57:43;;;;;;;13.15;8.38;;;;;;;;;;5048465;28;20029;-66
2023/04/14 06:00:11;;;;;;;10.05;7.85;;;;;;;;;;5053166;28;20032;-66
2023/04/14 06:02:40;;;;;;;11.65;9.00;;;;;;;;;;5048064;28;20086;-66
2023/04/14 06:05:06;;;;;;;15.43;8.68;;;;;;;;;;5045287;28;20044;-66
2023/04/14 06:07:34;;;;;;;20.20;12.60;;;;;;;;;;5049226;28;20702;-67
2023/04/14 06:10:00;;;;;;;13.00;8.63;;;;;;;;;;5048058;28;20436;-67
2023/04/14 06:12:27;;;;;;;12.55;8.60;;;;;;;;;;5048919;28;20224;-67
2023/04/14 06:14:52;;;;;;;11.77;8.77;;;;;;;;;;5046171;28;20438;-67
2023/04/14 06:17:18;;;;;;;14.32;9.85;;;;;;;;;;5048416;28;20271;-67
2023/04/14 06:19:46;;;;;;;11.45;9.50;;;;;;;;;;5051577;28;20082;-67
2023/04/14 06:22:15;;;;;;;8.60;7.90;;;;;;;;;;5046976;28;20124;-66
2023/04/14 06:24:41;;;;;;;13.10;9.30;;;;;;;;;;5047034;28;20036;-66
2023/04/14 06:27:08;;;;;;;12.43;8.73;;;;;;;;;;5049603;28;20061;-67
2023/04/14 06:29:34;;;;;;;12.05;8.77;;;;;;;;;;5053792;28;20076;-66
2023/04/14 06:32:00;;;;;;;10.82;9.00;;;;;;;;;;5046125;28;20044;-66
2023/04/14 06:34:25;;;;;;;13.77;9.27;;;;;;;;;;5052577;28;20040;-67
2023/04/14 06:36:51;;;;;;;10.90;9.77;;;;;;;;;;5049474;28;20037;-67
2023/04/14 06:39:18;;;;;;;11.65;8.75;;;;;;;;;;5050338;28;20123;-66
2023/04/14 06:41:44;;;;;;;14.52;8.70;;;;;;;;;;5049132;28;20057;-66
2023/04/14 06:44:11;;;;;;;8.98;8.10;;;;;;;;;;5031129;28;20132;-67
2023/04/14 06:46:38;;;;;;;10.48;7.95;;;;;;;;;;5051764;28;20052;-66
2023/04/14 06:49:04;;;;;;;11.15;8.73;;;;;;;;;;5047829;28;20029;-66
2023/04/14 06:51:31;;;;;;;10.55;8.27;;;;;;;;;;5049548;28;20067;-66
2023/04/14 06:53:57;;;;;;;8.85;8.15;;;;;;;;;;5042650;28;20025;-66
2023/04/14 06:56:22;;;;;;;9.20;7.93;;;;;;;;;;5049786;28;20037;-66
2023/04/14 06:58:48;;;;;;;9.07;7.93;;;;;;;;;;5051599;28;20461;-66
2023/04/14 07:01:13;;;;;;;9.05;8.23;;;;;;;;;;5047485;28;20591;-67
2023/04/14 07:03:39;;;;;;;9.38;7.55;;;;;;;;;;5047503;28;20131;-66
2023/04/14 07:06:08;;;;;;;17.33;7.85;;;;;;;;;;5049224;28;20056;-66
2023/04/14 07:08:34;;;;;;;9.98;8.10;;;;;;;;;;5051245;28;20072;-66
2023/04/14 07:11:01;;;;;;;8.85;7.95;;;;;;;;;;5051911;28;20040;-66
2023/04/14 07:13:27;;;;;;;7.72;6.85;;;;;;;;;;5047381;28;20469;-66
2023/04/14 07:15:53;;;;;;;7.35;6.72;;;;;;;;;;5047726;28;20025;-66
2023/04/14 07:18:19;;;;;;;7.43;6.65;;;;;;;;;;5050711;28;20040;-67
2023/04/14 07:20:45;;;;;;;7.70;6.32;;;;;;;;;;5054052;28;20094;-67
2023/04/14 07:23:10;;;;;;;9.15;6.90;;;;;;;;;;5045578;28;20222;-66
2023/04/14 07:25:36;;;;;;;9.50;6.72;;;;;;;;;;5052776;28;20100;-66
2023/04/14 07:28:03;;;;;;;8.20;6.65;;;;;;;;;;5045511;28;20045;-66
2023/04/14 07:30:28;;;;;;;9.27;6.30;;;;;;;;;;5048279;28;20037;-67
2023/04/14 07:32:54;;;;;;;9.25;6.63;;;;;;;;;;5047223;28;20037;-67
2023/04/14 07:35:19;;;;;;;7.43;5.85;;;;;;;;;;5049882;28;20142;-67
2023/04/14 07:37:45;;;;;;;8.60;6.22;;;;;;;;;;5044317;28;20094;-67
2023/04/14 07:40:10;;;;;;;8.70;6.40;;;;;;;;;;5044171;28;20117;-67
2023/04/14 07:42:36;;;;;;;7.40;6.20;;;;;;;;;;5049757;28;20067;-66
2023/04/14 07:45:03;;;;;;;8.68;5.90;;;;;;;;;;5047217;28;20037;-67
2023/04/14 07:47:29;;;;;;;6.18;5.35;;;;;;;;;;5045026;28;20047;-67
2023/04/14 07:49:55;;;;;;;8.40;5.95;;;;;;;;;;5046644;28;20032;-67
2023/04/14 07:52:21;;;;;;;8.30;6.57;;;;;;;;;;5050311;28;20064;-67
2023/04/14 07:54:47;;;;;;;8.45;6.15;;;;;;;;;;5046134;28;20143;-67
2023/04/14 07:57:13;;;;;;;7.03;6.05;;;;;;;;;;5052868;28;20047;-67
2023/04/14 07:59:41;;;;;;;7.20;6.00;;;;;;;;;;5046390;28;20037;-66
2023/04/14 08:02:08;;;;;;;9.50;5.65;;;;;;;;;;5053331;28;20048;-66
2023/04/14 08:04:33;;;;;;;6.10;5.32;;;;;;;;;;5046891;28;20051;-67
2023/04/14 08:07:00;;;;;;;8.38;5.50;;;;;;;;;;5054117;28;20025;-67
2023/04/14 08:09:25;;;;;;;9.10;5.57;;;;;;;;;;5051744;28;20082;-67
2023/04/14 08:11:51;;;;;;;9.35;5.85;;;;;;;;;;5044359;28;20036;-67
2023/04/14 08:14:16;;;;;;;10.23;5.95;;;;;;;;;;5036069;28;20036;-67
2023/04/14 08:16:42;;;;;;;11.20;5.40;;;;;;;;;;5055198;28;20281;-67
2023/04/14 08:19:12;;;;;;;11.40;5.75;;;;;;;;;;5053258;28;20082;-67
2023/04/14 08:21:37;;;;;;;8.52;5.78;;;;;;;;;;5051788;28;20040;-67
2023/04/14 08:24:05;;;;;;;7.35;5.57;;;;;;;;;;5053818;28;20025;-67
2023/04/14 08:26:30;;;;;;;7.18;5.68;;;;;;;;;;5050677;28;20041;-67
2023/04/14 08:28:56;;;;;;;10.43;5.65;;;;;;;;;;5049607;28;20075;-67
2023/04/14 08:31:23;;;;;;;7.43;5.75;;;;;;;;;;5050594;28;20041;-67
2023/04/14 08:33:49;;;;;;;8.98;5.80;;;;;;;;;;5042900;28;20126;-67
2023/04/14 08:36:14;;;;;;;10.10;6.10;;;;;;;;;;5045374;28;20037;-67
2023/04/14 08:38:40;;;;;;;8.48;5.47;;;;;;;;;;5050429;28;20037;-68
2023/04/14 08:41:08;;;;;;;8.70;5.82;;;;;;;;;;5052865;28;20037;-67
2023/04/14 08:43:36;;;;;;;10.30;6.00;;;;;;;;;;5047850;28;20127;-67
2023/04/14 08:46:03;;;;;;;9.07;5.60;;;;;;;;;;5052441;28;20421;-68
2023/04/14 08:48:30;;;;;;;9.77;5.65;;;;;;;;;;5054665;28;20446;-68
2023/04/14 08:51:11;;;;;;;8.10;5.53;;;;;;;;;;5042143;28;20025;-68
2023/04/14 08:53:44;;;;;;;10.52;5.68;;;;;;;;;;5053945;28;20476;-68
2023/04/14 08:56:16;;;;;;;8.35;5.68;;;;;;;;;;5050370;28;20072;-67
2023/04/14 08:58:43;;;;;;;8.32;5.10;;;;;;;;;;5052060;28;20769;-67
2023/04/14 09:01:12;;;;;;;11.52;5.40;;;;;;;;;;5051874;28;20041;-68
2023/04/14 09:03:38;;;;;;;5.53;5.00;;;;;;;;;;5053371;28;20043;-67
2023/04/14 09:06:05;;;;;;;8.88;5.80;;;;;;;;;;5054409;28;20064;-67
2023/04/14 09:08:33;;;;;;;8.02;5.50;;;;;;;;;;5044786;28;20036;-68
2023/04/14 09:11:02;;;;;;;7.68;5.28;;;;;;;;;;5042105;28;20489;-68
2023/04/14 09:13:29;;;;;;;6.70;5.38;;;;;;;;;;5049301;28;20051;-68
2023/04/14 09:15:56;;;;;;;10.75;5.22;;;;;;;;;;5049121;28;20115;-68
2023/04/14 09:18:22;;;;;;;7.85;5.18;;;;;;;;;;5047395;28;20037;-68
2023/04/14 09:20:48;;;;;;;11.10;5.57;;;;;;;;;;5045721;28;20047;-68
2023/04/14 09:23:13;;;;;;;11.50;5.45;;;;;;;;;;5052946;28;20041;-68
2023/04/14 09:25:41;;;;;;;8.27;4.72;;;;;;;;;;5051799;28;20423;-68
2023/04/14 09:28:07;;;;;;;6.85;4.50;;;;;;;;;;5045927;28;20041;-68
2023/04/14 09:30:33;;;;;;;6.82;4.80;;;;;;;;;;5054000;28;20025;-68
2023/04/14 09:33:03;;;;;;;9.75;5.13;;;;;;;;;;5051123;28;20037;-68
2023/04/14 09:35:49;;;;;;;11.85;5.28;;;;;;;;;;5054406;28;20652;-68
2023/04/14 09:38:31;;;;;;;7.80;4.95;;;;;;;;;;5047110;28;20033;-68
2023/04/14 09:40:56;;;;;;;9.50;4.85;;;;;;;;;;5046746;28;20040;-68
2023/04/14 09:43:24;;;;;;;5.80;4.47;;;;;;;;;;5045281;28;20673;-68
2023/04/14 09:45:50;;;;;;;8.93;4.78;;;;;;;;;;5047032;28;20051;-67
2023/04/14 09:48:16;;;;;;;11.48;4.70;;;;;;;;;;5049921;28;20037;-68
2023/04/14 09:51:05;;;;;;;8.52;4.75;;;;;;;;;;5049294;28;20036;-68
2023/04/14 09:53:34;;;;;;;6.65;5.00;;;;;;;;;;5045685;28;20041;-69
2023/04/14 09:56:03;;;;;;;9.15;4.50;;;;;;;;;;5050901;28;20048;-68
2023/04/14 09:58:33;;;;;;;;;;;;;;;;;;5047882;28;20136;-70
2023/04/14 10:00:58;;;;;;;8.63;4.50;;;;;;;;;;5048865;28;20430;-70
2023/04/14 10:03:36;;;;;;;8.88;4.60;;;;;;;;;;5049131;28;20132;-69
2023/04/14 10:06:04;;;;;;;6.30;4.30;;;;;;;;;;5052826;28;20025;-69
2023/04/14 10:08:35;;;;;;;5.03;4.13;;;;;;;;;;5050315;28;20053;-69
2023/04/14 10:11:23;;;;;;;7.40;4.55;;;;;;;;;;5042089;28;20107;-68
2023/04/14 10:13:52;;;;;;;9.73;4.60;;;;;;;;;;5048791;28;20059;-68
2023/04/14 10:16:18;;;;;;;7.72;4.43;;;;;;;;;;5053511;28;20040;-69
2023/04/14 10:18:45;;;;;;;8.52;4.53;;;;;;;;;;5047733;28;20043;-69
2023/04/14 10:21:13;;;;;;;5.93;4.32;;;;;;;;;;5049815;28;20485;-69
2023/04/14 10:23:42;;;;;;;5.80;4.45;;;;;;;;;;5052234;28;20967;-68
2023/04/14 10:26:10;;;;;;;7.70;4.45;;;;;;;;;;5046452;28;20119;-68
2023/04/14 10:28:39;;;;;;;11.00;4.97;;;;;;;;;;5044858;28;20082;-69
2023/04/14 10:31:16;;;;;;;8.48;4.30;;;;;;;;;;5051086;28;20635;-68
2023/04/14 10:33:41;;;;;;;8.38;4.68;;;;;;;;;;5049119;28;20108;-68
2023/04/14 10:36:08;;;;;;;10.13;4.78;;;;;;;;;;5053279;28;20127;-68
2023/04/14 10:38:42;;;;;;;10.75;4.57;;;;;;;;;;5049408;28;20071;-68
2023/04/14 10:41:09;;;;;;;8.82;4.55;;;;;;;;;;5046383;28;20036;-68
2023/04/14 10:43:36;;;;;;;8.27;4.60;;;;;;;;;;5043957;28;20404;-69
2023/04/14 10:46:03;;;;;;;11.70;4.70;;;;;;;;;;5050409;28;20033;-68
2023/04/14 10:48:40;;;;;;;6.93;4.45;;;;;;;;;;5056377;28;20044;-68
2023/04/14 10:51:08;;;;;;;9.65;4.47;;;;;;;;;;5042512;28;20480;-69
2023/04/14 10:53:51;;;;;;;4.97;4.40;;;;;;;;;;5048249;28;20036;-69
2023/04/14 10:56:20;;;;;;;10.43;5.00;;;;;;;;;;5043646;28;20040;-69
2023/04/14 10:58:56;;;;;;;8.98;4.75;;;;;;;;;;5048853;28;20033;-69
2023/04/14 11:01:29;;;;;;;10.55;5.40;;;;;;;;;;5047172;28;20834;-69
2023/04/14 11:03:56;;;;;;;8.50;4.97;;;;;;;;;;5040716;28;20083;-68
2023/04/14 11:06:47;;;;;;;8.05;4.93;;;;;;;;;;5044217;28;20029;-68
2023/04/14 11:09:32;;;;;;;9.45;4.97;;;;;;;;;;5047802;28;20037;-69
2023/04/14 11:12:24;;;;;;;7.63;4.90;;;;;;;;;;5041215;28;20156;-68
2023/04/14 11:15:03;;;;;;;8.45;4.45;;;;;;;;;;5042971;28;20076;-69
2023/04/14 11:17:31;;;;;;;8.05;4.80;;;;;;;;;;5041822;28;20107;-68
2023/04/14 11:19:57;;;;;;;7.13;4.70;;;;;;;;;;5048200;28;20496;-69
2023/04/14 11:22:43;;;;;;;9.13;4.53;;;;;;;;;;5046932;28;20045;-69
2023/04/14 11:25:13;;;;;;;7.07;4.60;;;;;;;;;;5053423;28;20097;-69
2023/04/14 11:27:40;;;;;;;10.43;4.45;;;;;;;;;;5041043;28;20033;-69
2023/04/14 11:30:08;;;;;;;9.38;4.43;;;;;;;;;;5047609;28;20067;-69
2023/04/14 11:32:55;;;;;;;7.35;4.10;;;;;;;;;;5027716;28;20535;-69
2023/04/14 11:35:23;;;;;;;7.55;5.57;;;;;;;;;;5046504;28;20496;-69
2023/04/14 11:37:55;;;;;;;6.97;5.20;;;;;;;;;;5042849;28;20475;-69
2023/04/14 11:40:22;;;;;;;8.73;5.53;;;;;;;;;;5046239;28;20118;-69
2023/04/14 11:42:56;;;;;;;8.10;5.82;;;;;;;;;;5046571;28;20040;-69
2023/04/14 11:45:26;;;;;;;7.03;5.78;;;;;;;;;;5049120;28;20275;-69
2023/04/14 11:47:58;;;;;;;6.72;5.35;;;;;;;;;;5049704;28;20349;-69
2023/04/14 11:50:26;;;;;;;9.98;5.80;;;;;;;;;;5047835;28;20064;-68
2023/04/14 11:52:53;;;;;;;6.18;5.32;;;;;;;;;;5044202;28;20044;-68
2023/04/14 11:55:22;;;;;;;7.47;5.18;;;;;;;;;;5046497;28;20032;-69
2023/04/14 11:57:48;;;;;;;8.23;5.43;;;;;;;;;;5046324;28;20033;-68
2023/04/14 12:00:14;;;;;;;7.78;5.68;;;;;;;;;;5044597;28;20033;-68
2023/04/14 12:02:43;;;;;;;9.77;5.32;;;;;;;;;;5038343;28;20102;-68
2023/04/14 12:05:10;;;;;;;7.07;5.13;;;;;;;;;;5041292;28;20318;-68
2023/04/14 12:07:37;;;;;;;8.32;5.32;;;;;;;;;;5044520;28;20033;-68
2023/04/14 12:10:04;;;;;;;5.93;5.07;;;;;;;;;;5046669;28;20040;-68
2023/04/14 12:12:32;;;;;;;8.05;4.95;;;;;;;;;;5043813;28;20045;-69
2023/04/14 12:14:57;;;;;;;7.07;5.20;;;;;;;;;;5044737;28;20037;-69
2023/04/14 12:17:23;;;;;;;7.65;5.05;;;;;;;;;;5047602;28;20043;-69
2023/04/14 12:19:49;;;;;;;9.23;5.20;;;;;;;;;;5047776;28;20021;-69
2023/04/14 12:22:28;;;;;;;7.00;5.05;;;;;;;;;;5045669;28;20025;-68
2023/04/14 12:24:57;;;;;;;7.72;5.38;;;;;;;;;;5046496;28;20029;-68
2023/04/14 12:27:23;;;;;;;7.47;5.80;;;;;;;;;;5048244;28;20039;-69
2023/04/14 12:29:49;;;;;;;7.07;5.75;;;;;;;;;;5044036;28;20028;-69
2023/04/14 12:32:16;;;;;;;10.68;7.97;;;;;;;;;;5046738;28;20067;-68
2023/04/14 12:34:56;;;;;;;6.28;5.30;;;;;;;;;;5045978;28;20117;-68
2023/04/14 12:37:26;;;;;;;6.38;5.20;;;;;;;;;;5047778;28;20045;-68
2023/04/14 12:39:52;;;;;;;6.45;5.75;;;;;;;;;;5043164;28;20037;-68
2023/04/14 12:42:17;;;;;;;8.20;5.60;;;;;;;;;;5045144;28;20097;-68
2023/04/14 12:44:54;;;;;;;9.85;5.43;;;;;;;;;;5045822;28;20041;-68
2023/04/14 12:47:30;;;;;;;6.50;5.65;;;;;;;;;;5041451;28;20076;-68
2023/04/14 12:49:57;;;;;;;5.85;5.32;;;;;;;;;;5044678;28;20037;-68
2023/04/14 12:52:36;;;;;;;6.32;5.82;;;;;;;;;;5053899;28;20068;-68
2023/04/14 12:55:04;;;;;;;6.00;5.40;;;;;;;;;;5047163;28;20563;-68
2023/04/14 12:57:31;;;;;;;11.52;5.93;;;;;;;;;;5049146;28;20060;-69
2023/04/14 12:59:59;;;;;;;8.68;5.78;;;;;;;;;;5050367;28;20032;-68
2023/04/14 13:02:28;;;;;;;7.95;6.05;;;;;;;;;;5051806;28;20334;-68
2023/04/14 13:04:54;;;;;;;;;;;;;;;;;;5048794;28;20095;-69
2023/04/14 13:07:20;;;;;;;7.38;5.90;;;;;;;;;;5049719;28;19912;-69
2023/04/14 13:09:45;;;;;;;6.32;5.72;;;;;;;;;;5050987;28;20040;-68
2023/04/14 13:12:11;;;;;;;7.90;5.20;;;;;;;;;;5046257;28;20041;-69
2023/04/14 13:14:37;;;;;;;7.63;5.55;;;;;;;;;;5048438;28;20083;-69
2023/04/14 13:17:02;;;;;;;10.10;5.63;;;;;;;;;;5053183;28;20472;-68
2023/04/14 13:19:28;;;;;;;6.25;5.03;;;;;;;;;;5049400;28;20114;-69
2023/04/14 13:21:53;;;;;;;11.82;5.80;;;;;;;;;;5050572;28;20511;-69
2023/04/14 13:24:19;;;;;;;5.45;5.05;;;;;;;;;;5049747;28;20540;-69
2023/04/14 13:26:45;;;;;;;7.95;5.65;;;;;;;;;;5050354;28;20029;-68
2023/04/14 13:29:12;;;;;;;6.20;5.53;;;;;;;;;;5045477;28;20052;-68
2023/04/14 13:31:38;;;;;;;6.75;5.53;;;;;;;;;;5049376;28;20032;-69
2023/04/14 13:34:04;;;;;;;7.55;5.70;;;;;;;;;;5049768;28;20492;-69
2023/04/14 13:36:29;;;;;;;6.00;5.45;;;;;;;;;;5052191;28;20044;-69
2023/04/14 13:38:56;;;;;;;8.15;5.70;;;;;;;;;;5044450;28;20044;-68
2023/04/14 13:41:23;;;;;;;7.40;5.55;;;;;;;;;;5048808;28;20561;-68
2023/04/14 13:43:49;;;;;;;9.95;5.55;;;;;;;;;;5050523;28;20075;-69
2023/04/14 13:46:14;;;;;;;8.15;5.60;;;;;;;;;;5048469;28;20041;-68
2023/04/14 13:48:42;;;;;;;7.93;5.70;;;;;;;;;;5047760;28;20102;-68
2023/04/14 13:51:08;;;;;;;5.85;5.35;;;;;;;;;;5050304;28;20033;-68
2023/04/14 13:53:33;;;;;;;6.32;5.82;;;;;;;;;;5047983;28;20037;-68
2023/04/14 13:55:59;;;;;;;6.35;5.75;;;;;;;;;;5046675;28;20037;-68
2023/04/14 13:58:25;;;;;;;6.93;5.50;;;;;;;;;;5047249;28;20578;-69
2023/04/14 14:00:50;;;;;;;8.18;5.55;;;;;;;;;;5048814;28;20519;-69
2023/04/14 14:03:16;;;;;;;6.15;5.55;;;;;;;;;;5047365;28;20033;-69
2023/04/14 14:05:42;;;;;;;6.75;6.05;;;;;;;;;;5049194;28;20048;-68
2023/04/14 14:08:07;;;;;;;5.65;5.15;;;;;;;;;;5050010;28;20033;-69
2023/04/14 14:10:33;;;;;;;6.97;5.55;;;;;;;;;;5051689;28;20493;-68
2023/04/14 14:12:58;;;;;;;9.05;5.70;;;;;;;;;;5043413;28;20036;-68
2023/04/14 14:15:24;;;;;;;11.90;5.35;;;;;;;;;;5047152;28;20671;-68
2023/04/14 14:17:51;;;;;;;5.82;5.28;;;;;;;;;;5046820;28;20496;-68
2023/04/14 14:20:17;;;;;;;6.85;5.18;;;;;;;;;;5044515;28;20485;-68
2023/04/14 14:22:43;;;;;;;5.75;5.07;;;;;;;;;;5042805;28;20043;-68
2023/04/14 14:25:09;;;;;;;6.22;5.63;;;;;;;;;;5051123;28;20037;-69
2023/04/14 14:27:34;;;;;;;6.28;5.68;;;;;;;;;;5048017;28;20064;-68
2023/04/14 14:30:00;;;;;;;6.63;5.45;;;;;;;;;;5045877;28;20043;-68
2023/04/14 14:32:25;;;;;;;6.00;5.18;;;;;;;;;;5048686;28;20037;-68
2023/04/14 14:34:51;;;;;;;8.63;5.35;;;;;;;;;;5040840;28;20571;-68
2023/04/14 14:37:17;;;;;;;8.80;5.05;;;;;;;;;;5036537;28;20033;-69
2023/04/14 14:39:43;;;;;;;5.53;5.03;;;;;;;;;;5049958;28;20040;-68
2023/04/14 14:42:09;;;;;;;6.63;4.90;;;;;;;;;;5046677;28;20047;-68